首页
METAR-TAF:

METAR-TAF

机场 :

Slidell Airport

斯莱德尔, 路易斯安那州, 美国

纬度: 30-20-35N, 经度: 089-49-19W, 海拔: 9米

当前天气观测

该预报发布于18分钟前的04:53 UTC
风速8节,风向东转东北
温度 3°C
湿度 52%
气压 1030 hPa
能見度: 16.1公里
天空无云

METAR: KASD 220453Z AUTO 06008KT 10SM CLR 03/M06 A3041 RMK AO2 SLP297 T00331061

时间: 23:11 (05:11 UTC)

预报

该预报发布于5小时和43分钟前的23:28 UTC
预报有效从22日的 00点(UTC)到 22日的 24点(UTC)
风速8节,风向北转东北
能見度: 10公里
天空无云
从 22日的 1700点(UTC)
风速5节,风向
能見度: 10公里
散云层高于20000英尺

TAF: KASD 212328Z 2200/2224 02008KT P6SM SKC FM221700 10005KT P6SM SCT200

超过4000个机场的气象观测和天气预报(METAR&TAF报告)。

可查询的气象台以黄色和红色小点在地图上表示。

将鼠标移到小点上方,可查看气象台名称。

然后点击查看天气观测和预报。

如需切换地图:点击带黑十字的绿色按钮放大地图;点击带横线的绿色按钮缩小地图;或者点击绿色箭头查看邻近地区的地图。


METAR-TAF: